createdAt,value
2023-04-25T00:00:37.301Z,237.83
2023-04-25T00:01:37.407Z,236.00
2023-04-25T00:02:37.494Z,237.32
2023-04-25T00:03:37.540Z,240.19
2023-04-25T00:04:37.704Z,254.59
2023-04-25T00:05:37.593Z,260.55
2023-04-25T00:06:37.559Z,256.98
2023-04-25T00:07:37.579Z,247.28
2023-04-25T00:08:37.612Z,242.47
2023-04-25T00:09:37.617Z,239.58
2023-04-25T00:10:37.638Z,239.14
2023-04-25T00:11:37.710Z,239.74
2023-04-25T00:12:37.762Z,243.23
2023-04-25T00:13:37.797Z,245.29
2023-04-25T00:14:37.906Z,253.34
2023-04-25T00:15:37.973Z,259.72
2023-04-25T00:16:38.069Z,262.02
2023-04-25T00:17:38.146Z,261.05
2023-04-25T00:18:38.097Z,255.59
2023-04-25T00:19:38.158Z,250.00
2023-04-25T00:20:38.229Z,245.56
2023-04-25T00:21:38.249Z,243.84
2023-04-25T00:22:38.349Z,248.97
2023-04-25T00:23:38.331Z,250.00
2023-04-25T00:24:38.358Z,250.05
2023-04-25T00:25:38.366Z,248.78
2023-04-25T00:26:38.440Z,243.83
2023-04-25T00:27:38.514Z,241.10
2023-04-25T00:28:38.567Z,246.31
2023-04-25T00:29:38.607Z,240.26
2023-04-25T00:30:38.610Z,232.94
2023-04-25T00:31:38.641Z,230.59
2023-04-25T00:32:38.775Z,232.62
2023-04-25T00:33:38.676Z,232.03
2023-04-25T00:34:38.793Z,228.86
2023-04-25T00:35:38.761Z,231.10
2023-04-25T00:36:38.729Z,235.46
2023-04-25T00:37:38.752Z,240.48
2023-04-25T00:38:38.765Z,248.18
2023-04-25T00:39:38.790Z,250.71
2023-04-25T00:40:38.805Z,253.13
2023-04-25T00:41:38.834Z,250.38
2023-04-25T00:42:38.960Z,245.77
2023-04-25T00:43:38.972Z,240.42
2023-04-25T00:44:38.952Z,238.14
2023-04-25T00:45:38.902Z,234.56
2023-04-25T00:46:38.958Z,238.90
2023-04-25T00:47:39.001Z,247.74
2023-04-25T00:48:39.051Z,250.00
2023-04-25T00:49:38.970Z,249.95
2023-04-25T00:50:39.000Z,252.68
2023-04-25T00:51:39.056Z,251.96
2023-04-25T00:52:39.115Z,251.81
2023-04-25T00:53:39.093Z,252.18
2023-04-25T00:54:39.180Z,253.06
2023-04-25T00:55:39.138Z,252.34
2023-04-25T00:56:39.301Z,249.82
2023-04-25T00:57:39.277Z,245.69
2023-04-25T00:58:39.245Z,245.85
2023-04-25T00:59:39.314Z,249.82
2023-04-25T01:00:39.624Z,251.83
2023-04-25T01:01:39.424Z,253.02
2023-04-25T01:02:39.496Z,252.17
2023-04-25T01:03:39.615Z,248.49
2023-04-25T01:04:39.505Z,245.16
2023-04-25T01:05:39.537Z,244.39
2023-04-25T01:06:39.583Z,244.52
2023-04-25T01:07:39.570Z,244.61
2023-04-25T01:08:39.589Z,243.15
2023-04-25T01:09:39.669Z,242.64
2023-04-25T01:10:39.628Z,242.10
2023-04-25T01:11:39.732Z,240.68
2023-04-25T01:12:39.766Z,237.23
2023-04-25T01:13:39.775Z,234.57
2023-04-25T01:14:39.811Z,234.40
2023-04-25T01:15:39.818Z,231.80
2023-04-25T01:16:39.986Z,229.98
2023-04-25T01:17:39.943Z,229.01
2023-04-25T01:18:39.927Z,228.95
2023-04-25T01:19:40.593Z,228.46
2023-04-25T01:20:39.992Z,227.20
2023-04-25T01:21:40.033Z,226.84
2023-04-25T01:22:40.063Z,228.38
2023-04-25T01:23:40.115Z,228.36
2023-04-25T01:24:40.143Z,228.40
2023-04-25T01:25:40.158Z,229.94
2023-04-25T01:26:40.185Z,230.46
2023-04-25T01:27:40.229Z,228.88
2023-04-25T01:28:41.078Z,227.69
2023-04-25T01:29:40.375Z,227.69
2023-04-25T01:30:40.598Z,228.93
2023-04-25T01:31:40.589Z,221.91
2023-04-25T01:32:40.504Z,212.86
2023-04-25T01:33:40.525Z,211.27
2023-04-25T01:34:40.544Z,212.97
2023-04-25T01:35:40.599Z,215.95
2023-04-25T01:36:40.566Z,220.23
2023-04-25T01:37:40.652Z,227.14
2023-04-25T01:38:40.688Z,231.63
2023-04-25T01:39:40.703Z,227.71
2023-04-25T01:40:40.731Z,221.24
2023-04-25T01:41:40.777Z,219.73
2023-04-25T01:42:40.771Z,220.51
2023-04-25T01:43:40.797Z,219.22
2023-04-25T01:44:40.818Z,219.31
2023-04-25T01:45:40.866Z,219.71
2023-04-25T01:46:40.936Z,221.13
2023-04-25T01:47:40.938Z,223.12
2023-04-25T01:48:41.018Z,228.52
2023-04-25T01:49:41.002Z,231.22
2023-04-25T01:50:41.013Z,229.99
2023-04-25T01:51:41.028Z,231.30
2023-04-25T01:52:41.024Z,226.07
2023-04-25T01:53:41.124Z,222.83
2023-04-25T01:54:41.150Z,220.98
2023-04-25T01:55:41.227Z,221.45
2023-04-25T01:56:42.147Z,219.96
2023-04-25T01:57:41.273Z,220.40
2023-04-25T01:58:41.334Z,220.85
2023-04-25T01:59:41.447Z,222.52
2023-04-25T02:00:41.431Z,223.04
2023-04-25T02:01:41.486Z,221.86
2023-04-25T02:02:41.597Z,223.20
2023-04-25T02:03:41.559Z,225.42
2023-04-25T02:04:41.610Z,227.10
2023-04-25T02:05:41.510Z,227.81
2023-04-25T02:06:41.585Z,227.17
2023-04-25T02:07:41.659Z,228.02
2023-04-25T02:08:41.644Z,231.28
2023-04-25T02:09:41.699Z,234.60
2023-04-25T02:10:41.714Z,236.93
2023-04-25T02:11:41.685Z,238.28
2023-04-25T02:12:41.732Z,237.21
2023-04-25T02:13:41.669Z,235.81
2023-04-25T02:14:41.682Z,228.29
2023-04-25T02:15:41.815Z,225.26
2023-04-25T02:16:41.838Z,228.50
2023-04-25T02:17:41.802Z,229.11
2023-04-25T02:18:41.789Z,226.48
2023-04-25T02:19:41.784Z,226.87
2023-04-25T02:20:41.781Z,227.07
2023-04-25T02:21:42.629Z,229.30
2023-04-25T02:22:41.893Z,232.82
2023-04-25T02:23:41.898Z,234.55
2023-04-25T02:24:41.952Z,233.80
2023-04-25T02:25:42.030Z,233.61
2023-04-25T02:26:42.062Z,233.93
2023-04-25T02:27:42.096Z,235.16
2023-04-25T02:28:42.110Z,236.02
2023-04-25T02:29:42.163Z,234.69
2023-04-25T02:30:42.212Z,236.46
2023-04-25T02:31:42.304Z,241.24
2023-04-25T02:32:42.256Z,241.46
2023-04-25T02:33:42.381Z,241.21
2023-04-25T02:34:42.351Z,242.06
2023-04-25T02:35:42.319Z,243.95
2023-04-25T02:36:42.360Z,242.50
2023-04-25T02:37:42.433Z,240.27
2023-04-25T02:38:42.379Z,241.30
2023-04-25T02:39:42.428Z,241.36
2023-04-25T02:40:42.379Z,241.34
2023-04-25T02:41:42.428Z,241.44
2023-04-25T02:42:42.432Z,243.56
2023-04-25T02:43:42.402Z,246.33
2023-04-25T02:44:42.438Z,247.98
2023-04-25T02:45:42.475Z,249.41
2023-04-25T02:46:42.533Z,249.41
2023-04-25T02:47:42.474Z,249.65
2023-04-25T02:48:42.503Z,250.71
2023-04-25T02:49:42.603Z,250.56
2023-04-25T02:50:42.538Z,250.00
2023-04-25T02:51:42.526Z,250.51
2023-04-25T02:52:42.550Z,249.70
2023-04-25T02:53:42.556Z,250.00
2023-04-25T02:54:42.613Z,249.89
2023-04-25T02:55:42.592Z,246.41
2023-04-25T02:56:42.648Z,243.92
2023-04-25T02:57:42.637Z,244.01
2023-04-25T02:58:42.791Z,242.05
2023-04-25T02:59:42.658Z,240.96
2023-04-25T03:00:42.739Z,240.07
2023-04-25T03:01:42.705Z,239.46
2023-04-25T03:02:42.742Z,239.32
2023-04-25T03:03:42.778Z,238.47
2023-04-25T03:04:42.973Z,234.30
2023-04-25T03:05:42.824Z,227.24
2023-04-25T03:06:42.847Z,223.70
2023-04-25T03:07:42.856Z,217.98
2023-04-25T03:08:42.925Z,211.28
2023-04-25T03:09:42.950Z,206.88
2023-04-25T03:10:42.958Z,202.80
2023-04-25T03:11:42.984Z,199.69
2023-04-25T03:12:43.024Z,196.70
2023-04-25T03:13:43.092Z,196.33
2023-04-25T03:14:43.166Z,193.99
2023-04-25T03:15:43.115Z,195.21
2023-04-25T03:16:43.153Z,196.72
2023-04-25T03:17:43.169Z,198.18
2023-04-25T03:18:43.170Z,199.53
2023-04-25T03:19:43.183Z,201.22
2023-04-25T03:20:43.200Z,201.38
2023-04-25T03:21:43.270Z,203.90
2023-04-25T03:22:43.246Z,204.23
2023-04-25T03:23:43.252Z,200.84
2023-04-25T03:24:43.283Z,198.60
2023-04-25T03:25:43.296Z,196.42
2023-04-25T03:26:43.320Z,196.90
2023-04-25T03:27:43.351Z,194.94
2023-04-25T03:28:43.354Z,194.19
2023-04-25T03:29:43.371Z,195.77
2023-04-25T03:30:43.432Z,198.48
2023-04-25T03:31:43.490Z,199.59
2023-04-25T03:32:43.546Z,199.04
2023-04-25T03:33:43.499Z,199.64
2023-04-25T03:34:43.514Z,198.07
2023-04-25T03:35:43.538Z,197.54
2023-04-25T03:36:43.546Z,197.27
2023-04-25T03:37:43.573Z,197.33
2023-04-25T03:38:43.587Z,200.03
2023-04-25T03:39:43.612Z,201.03
2023-04-25T03:40:43.620Z,199.74
2023-04-25T03:41:43.652Z,200.74
2023-04-25T03:42:44.988Z,202.10
2023-04-25T03:43:43.655Z,203.45
2023-04-25T03:44:43.660Z,209.89
2023-04-25T03:45:43.695Z,210.76
2023-04-25T03:46:43.739Z,214.60
2023-04-25T03:47:43.777Z,219.19
2023-04-25T03:48:43.780Z,214.59
2023-04-25T03:49:44.106Z,214.98
2023-04-25T03:50:43.815Z,214.46
2023-04-25T03:51:43.900Z,215.18
2023-04-25T03:52:43.908Z,213.73
2023-04-25T03:53:43.982Z,213.27
2023-04-25T03:54:44.049Z,212.65
2023-04-25T03:55:44.013Z,210.66
2023-04-25T03:56:44.023Z,210.56
2023-04-25T03:57:44.051Z,213.37
2023-04-25T03:58:44.069Z,214.91
2023-04-25T03:59:44.084Z,214.84
2023-04-25T04:00:44.102Z,214.43
2023-04-25T04:01:44.123Z,212.11
2023-04-25T04:02:45.507Z,209.60
2023-04-25T04:03:44.373Z,213.65
2023-04-25T04:04:44.565Z,214.13
2023-04-25T04:05:44.610Z,214.27
2023-04-25T04:06:44.370Z,216.17
2023-04-25T04:07:44.387Z,217.96
2023-04-25T04:08:44.437Z,224.51
2023-04-25T04:09:44.523Z,225.81
2023-04-25T04:10:44.531Z,224.79
2023-04-25T04:11:44.581Z,221.81
2023-04-25T04:12:44.521Z,221.50
2023-04-25T04:13:44.566Z,223.15
2023-04-25T04:14:44.563Z,219.48
2023-04-25T04:15:44.633Z,214.76
2023-04-25T04:16:44.629Z,213.65
2023-04-25T04:17:44.738Z,212.67
2023-04-25T04:18:44.652Z,212.01
2023-04-25T04:19:44.673Z,214.11
2023-04-25T04:20:44.676Z,215.63
2023-04-25T04:21:44.717Z,217.74
2023-04-25T04:22:44.674Z,220.25
2023-04-25T04:23:44.687Z,219.26
2023-04-25T04:24:44.728Z,219.85
2023-04-25T04:25:44.679Z,219.69
2023-04-25T04:26:44.685Z,219.93
2023-04-25T04:27:44.708Z,220.45
2023-04-25T04:28:44.719Z,216.33
2023-04-25T04:29:44.753Z,215.95
2023-04-25T04:30:44.765Z,217.72
2023-04-25T04:31:44.813Z,219.62
2023-04-25T04:32:44.872Z,222.78
2023-04-25T04:33:44.826Z,223.20
2023-04-25T04:34:44.899Z,222.77
2023-04-25T04:35:44.877Z,222.48
2023-04-25T04:36:44.932Z,222.94
2023-04-25T04:37:44.909Z,224.26
2023-04-25T04:38:44.945Z,224.70
2023-04-25T04:39:45.052Z,226.05
2023-04-25T04:40:45.054Z,228.99
2023-04-25T04:41:45.019Z,233.48
2023-04-25T04:42:45.058Z,240.11
2023-04-25T04:43:45.106Z,246.87
2023-04-25T04:44:45.084Z,251.28
2023-04-25T04:45:45.145Z,251.13
2023-04-25T04:46:45.239Z,253.95
2023-04-25T04:47:45.216Z,262.56
2023-04-25T04:48:45.304Z,277.20
2023-04-25T04:49:45.333Z,281.99
2023-04-25T04:50:45.411Z,283.19
2023-04-25T04:51:45.504Z,282.18
2023-04-25T04:52:45.475Z,272.82
2023-04-25T04:53:45.506Z,263.96
2023-04-25T04:54:45.676Z,256.78
2023-04-25T04:55:45.639Z,249.43
2023-04-25T04:56:45.610Z,248.87
2023-04-25T04:57:45.624Z,244.31
2023-04-25T04:58:45.652Z,237.29
2023-04-25T04:59:45.636Z,229.73
2023-04-25T05:00:45.626Z,232.67
2023-04-25T05:01:45.650Z,232.40
2023-04-25T05:02:45.729Z,223.88
2023-04-25T05:03:45.801Z,222.22
2023-04-25T05:04:45.790Z,222.90
2023-04-25T05:05:45.723Z,215.36
2023-04-25T05:06:47.477Z,212.74
2023-04-25T05:07:45.873Z,213.96
2023-04-25T05:08:46.649Z,216.60
2023-04-25T05:09:46.205Z,215.17
2023-04-25T05:10:45.802Z,213.02
2023-04-25T05:11:45.835Z,215.85
2023-04-25T05:12:45.749Z,219.86
2023-04-25T05:13:45.725Z,221.60
2023-04-25T05:14:45.751Z,216.13
2023-04-25T05:15:45.710Z,215.73
2023-04-25T05:16:45.770Z,218.06
2023-04-25T05:17:45.838Z,219.03
2023-04-25T05:18:45.708Z,226.47
2023-04-25T05:19:45.779Z,231.96
2023-04-25T05:20:45.967Z,228.78
2023-04-25T05:21:45.719Z,223.19
2023-04-25T05:22:45.680Z,213.65
2023-04-25T05:23:45.649Z,209.16
2023-04-25T05:24:46.692Z,208.65
2023-04-25T05:25:45.792Z,212.65
2023-04-25T05:26:45.650Z,216.43
2023-04-25T05:27:45.661Z,221.68
2023-04-25T05:28:45.645Z,228.24
2023-04-25T05:29:45.603Z,237.78
2023-04-25T05:30:45.738Z,240.93
2023-04-25T05:31:45.800Z,243.17
2023-04-25T05:32:45.686Z,244.06
2023-04-25T05:33:45.593Z,245.77
2023-04-25T05:34:45.711Z,249.76
2023-04-25T05:35:45.615Z,242.50
2023-04-25T05:36:45.571Z,236.31
2023-04-25T05:37:45.648Z,227.39
2023-04-25T05:38:46.190Z,226.88
2023-04-25T05:39:45.576Z,226.46
2023-04-25T05:40:46.163Z,225.61
2023-04-25T05:41:45.537Z,222.25
2023-04-25T05:42:45.695Z,219.70
2023-04-25T05:43:46.199Z,220.97
2023-04-25T05:44:45.680Z,225.05
2023-04-25T05:45:45.779Z,228.10
2023-04-25T05:46:45.746Z,231.83
2023-04-25T05:47:46.161Z,235.66
2023-04-25T05:48:45.855Z,234.34
2023-04-25T05:49:45.746Z,234.34
2023-04-25T05:50:46.652Z,230.26
2023-04-25T05:51:45.868Z,224.20
2023-04-25T05:52:45.879Z,223.07
2023-04-25T05:53:45.907Z,220.00
2023-04-25T05:54:46.628Z,215.57
2023-04-25T05:55:45.967Z,216.95
2023-04-25T05:56:46.265Z,217.40
2023-04-25T05:57:46.176Z,220.27
2023-04-25T05:58:46.077Z,218.65
2023-04-25T05:59:46.232Z,209.59
2023-04-25T06:00:46.213Z,204.81
2023-04-25T06:01:46.154Z,208.22
2023-04-25T06:02:46.271Z,212.05
2023-04-25T06:03:46.527Z,216.41
2023-04-25T06:04:46.432Z,221.57
2023-04-25T06:05:46.289Z,220.44
2023-04-25T06:06:46.326Z,214.69
2023-04-25T06:07:46.310Z,211.70
2023-04-25T06:08:46.342Z,210.66
2023-04-25T06:09:46.341Z,210.10
2023-04-25T06:10:46.371Z,208.00
2023-04-25T06:11:46.374Z,203.52
2023-04-25T06:12:46.409Z,200.25
2023-04-25T06:13:46.487Z,194.36
2023-04-25T06:14:46.465Z,188.37
2023-04-25T06:15:46.533Z,185.10
2023-04-25T06:16:46.473Z,186.97
2023-04-25T06:17:46.723Z,191.28
2023-04-25T06:18:46.618Z,196.00
2023-04-25T06:19:46.581Z,196.84
2023-04-25T06:20:47.273Z,187.18
2023-04-25T06:21:46.666Z,182.69
2023-04-25T06:22:46.727Z,170.81
2023-04-25T06:23:46.816Z,170.82
2023-04-25T06:24:47.050Z,179.90
2023-04-25T06:25:47.008Z,179.98
2023-04-25T06:26:46.993Z,169.61
2023-04-25T06:27:46.892Z,170.24
2023-04-25T06:28:47.701Z,178.77
2023-04-25T06:29:46.916Z,183.09
2023-04-25T06:30:46.930Z,188.19
2023-04-25T06:31:47.012Z,196.44
2023-04-25T06:32:47.153Z,205.27
2023-04-25T06:33:47.052Z,192.94
2023-04-25T06:34:47.115Z,193.08
2023-04-25T06:35:47.131Z,182.24
2023-04-25T06:36:47.194Z,170.35
2023-04-25T06:37:47.689Z,153.51
2023-04-25T06:38:47.281Z,170.63
2023-04-25T06:39:47.306Z,172.04
2023-04-25T06:40:48.174Z,150.92
2023-04-25T06:41:47.342Z,154.74
2023-04-25T06:42:47.687Z,168.64
2023-04-25T06:43:47.375Z,173.54
2023-04-25T06:44:47.439Z,167.83
2023-04-25T06:45:48.504Z,180.70
2023-04-25T06:46:47.525Z,166.76
2023-04-25T06:47:47.550Z,158.05
2023-04-25T06:48:47.529Z,143.71
2023-04-25T06:49:47.617Z,156.61
2023-04-25T06:50:47.570Z,159.77
2023-04-25T06:51:47.593Z,155.88
2023-04-25T06:52:47.648Z,160.17
2023-04-25T06:53:47.681Z,164.04
2023-04-25T06:54:47.691Z,156.47
2023-04-25T06:55:48.423Z,152.30
2023-04-25T06:56:47.686Z,157.53
2023-04-25T06:57:48.153Z,159.25
2023-04-25T06:58:47.820Z,158.48
2023-04-25T06:59:47.996Z,164.52
2023-04-25T07:00:47.857Z,164.39
2023-04-25T07:01:47.909Z,165.54
2023-04-25T07:02:48.022Z,162.25
2023-04-25T07:03:48.238Z,159.49
2023-04-25T07:04:48.174Z,156.41
2023-04-25T07:05:48.094Z,154.76
2023-04-25T07:06:48.145Z,164.10
2023-04-25T07:07:48.170Z,166.95
2023-04-25T07:08:48.222Z,171.22
2023-04-25T07:09:48.204Z,163.89
2023-04-25T07:10:49.788Z,155.86
2023-04-25T07:11:48.227Z,155.50
2023-04-25T07:12:48.265Z,140.90
2023-04-25T07:13:48.248Z,135.85
2023-04-25T07:14:48.288Z,133.72
2023-04-25T07:15:48.653Z,135.30
2023-04-25T07:16:49.428Z,138.15
2023-04-25T07:17:49.248Z,130.94
2023-04-25T07:18:49.378Z,126.77
2023-04-25T07:19:48.433Z,124.51
2023-04-25T07:20:48.450Z,118.22
2023-04-25T07:21:48.513Z,120.16
2023-04-25T07:22:48.641Z,120.88
2023-04-25T07:23:48.520Z,122.49
2023-04-25T07:24:48.537Z,122.83
2023-04-25T07:25:48.562Z,122.94
2023-04-25T07:26:48.580Z,120.86
2023-04-25T07:27:48.598Z,118.15
2023-04-25T07:28:48.839Z,122.47
2023-04-25T07:29:48.666Z,115.82
2023-04-25T07:30:48.720Z,107.88
2023-04-25T07:31:48.954Z,110.05
2023-04-25T07:32:48.906Z,108.71
2023-04-25T07:33:49.286Z,105.71
2023-04-25T07:34:51.778Z,102.95
2023-04-25T07:35:49.786Z,104.32
2023-04-25T07:36:48.958Z,104.04
2023-04-25T07:37:48.872Z,110.86
2023-04-25T07:38:50.092Z,113.60
2023-04-25T07:39:48.809Z,111.01
2023-04-25T07:40:49.281Z,114.05
2023-04-25T07:41:48.864Z,118.99
2023-04-25T07:42:48.812Z,123.11
2023-04-25T07:43:49.731Z,120.12
2023-04-25T07:44:48.876Z,128.78
2023-04-25T07:45:48.801Z,137.10
2023-04-25T07:46:48.795Z,125.47
2023-04-25T07:47:48.810Z,119.12
2023-04-25T07:48:49.542Z,114.28
2023-04-25T07:49:50.732Z,109.83
2023-04-25T07:50:48.799Z,107.50
2023-04-25T07:51:48.741Z,104.18
2023-04-25T07:52:48.754Z,109.13
2023-04-25T07:53:50.634Z,108.42
2023-04-25T07:54:50.672Z,115.07
2023-04-25T07:55:48.715Z,113.81
2023-04-25T07:56:52.623Z,118.63
2023-04-25T07:57:55.732Z,115.10
2023-04-25T07:58:53.068Z,111.12
2023-04-25T07:59:48.667Z,112.45
2023-04-25T08:00:48.884Z,111.19
2023-04-25T08:01:49.176Z,108.72
2023-04-25T08:02:48.819Z,105.91
2023-04-25T08:03:48.773Z,104.99
2023-04-25T08:04:48.824Z,105.25
2023-04-25T08:05:48.791Z,110.80
2023-04-25T08:06:48.677Z,110.81
2023-04-25T08:07:48.655Z,110.60
2023-04-25T08:08:49.370Z,109.09
2023-04-25T08:09:48.653Z,108.03
2023-04-25T08:10:48.715Z,110.41
2023-04-25T08:11:48.640Z,107.04
2023-04-25T08:12:48.660Z,105.12
2023-04-25T08:13:48.649Z,108.42
2023-04-25T08:14:48.623Z,107.15
2023-04-25T08:15:48.757Z,106.94
2023-04-25T08:16:48.635Z,109.99
2023-04-25T08:17:48.669Z,109.33
2023-04-25T08:18:48.873Z,103.03
2023-04-25T08:19:48.575Z,101.47
2023-04-25T08:20:48.777Z,101.56
2023-04-25T08:21:48.530Z,99.85
2023-04-25T08:22:48.615Z,99.27
2023-04-25T08:23:48.605Z,98.17
2023-04-25T08:24:49.293Z,105.93
2023-04-25T08:25:48.656Z,110.05
2023-04-25T08:26:48.655Z,105.48
2023-04-25T08:27:48.715Z,104.89
2023-04-25T08:28:49.326Z,106.22
2023-04-25T08:29:48.741Z,99.16
2023-04-25T08:30:48.787Z,92.73
2023-04-25T08:31:48.885Z,92.53
2023-04-25T08:32:53.835Z,91.95
2023-04-25T08:33:49.249Z,91.78
2023-04-25T08:34:48.804Z,90.43
2023-04-25T08:35:48.779Z,90.65
2023-04-25T08:36:48.800Z,128.87
2023-04-25T08:37:48.806Z,186.89
2023-04-25T08:38:51.960Z,196.73
2023-04-25T08:39:48.817Z,197.12
2023-04-25T08:40:51.728Z,179.50
2023-04-25T08:41:48.757Z,149.72
2023-04-25T08:42:48.782Z,125.83
2023-04-25T08:43:49.350Z,116.46
2023-04-25T08:44:48.840Z,112.95
2023-04-25T08:45:48.727Z,110.05
2023-04-25T08:46:48.917Z,116.69
2023-04-25T08:47:48.772Z,116.54
2023-04-25T08:48:49.148Z,116.67
2023-04-25T08:49:48.697Z,117.77
2023-04-25T08:50:51.302Z,121.36
2023-04-25T08:51:49.275Z,121.49
2023-04-25T08:52:48.940Z,122.10
2023-04-25T08:53:53.673Z,119.80
2023-04-25T08:54:50.682Z,115.27
2023-04-25T08:55:49.053Z,118.67
2023-04-25T08:56:49.984Z,121.07
2023-04-25T08:57:48.982Z,116.11
2023-04-25T08:58:49.204Z,112.69
2023-04-25T08:59:48.877Z,112.30
2023-04-25T09:00:48.969Z,113.64
2023-04-25T09:01:48.948Z,123.24
2023-04-25T09:02:49.854Z,124.04
2023-04-25T09:03:49.145Z,122.75
2023-04-25T09:04:49.052Z,120.08
2023-04-25T09:05:49.105Z,118.75
2023-04-25T09:06:49.117Z,115.72
2023-04-25T09:07:50.713Z,117.77
2023-04-25T09:08:49.278Z,122.20
2023-04-25T09:09:49.439Z,133.20
2023-04-25T09:10:49.314Z,127.43
2023-04-25T09:11:49.398Z,124.71
2023-04-25T09:12:49.431Z,116.05
2023-04-25T09:13:49.685Z,112.85
2023-04-25T09:14:49.495Z,110.25
2023-04-25T09:15:49.587Z,105.80
2023-04-25T09:16:49.577Z,93.25
2023-04-25T09:17:49.705Z,88.58
2023-04-25T09:18:49.816Z,82.49
2023-04-25T09:19:49.716Z,76.48
2023-04-25T09:21:00.106Z,72.69
2023-04-25T09:21:50.778Z,66.92
2023-04-25T09:22:49.693Z,72.86
2023-04-25T09:23:50.214Z,72.13
2023-04-25T09:24:49.706Z,65.42
2023-04-25T09:25:49.665Z,59.34
2023-04-25T09:26:51.026Z,59.91
2023-04-25T09:27:49.754Z,65.94
2023-04-25T09:28:49.663Z,65.97
2023-04-25T09:29:49.813Z,64.74
2023-04-25T09:30:49.700Z,56.86
2023-04-25T09:31:49.734Z,51.44
2023-04-25T09:32:52.343Z,52.84
2023-04-25T09:33:51.424Z,73.15
2023-04-25T09:34:49.872Z,74.32
2023-04-25T09:35:49.936Z,80.81
2023-04-25T09:36:50.286Z,101.14
2023-04-25T09:37:50.283Z,145.23
2023-04-25T09:38:50.172Z,150.51
2023-04-25T09:39:50.025Z,119.96
2023-04-25T09:40:49.974Z,107.68
2023-04-25T09:41:50.768Z,99.82
2023-04-25T09:42:49.991Z,91.80
2023-04-25T09:43:50.015Z,91.55
2023-04-25T09:44:50.742Z,97.39
2023-04-25T09:45:50.852Z,95.28
2023-04-25T09:46:50.325Z,84.56
2023-04-25T09:47:50.789Z,117.12
2023-04-25T09:48:51.266Z,107.90
2023-04-25T09:49:50.289Z,94.18
2023-04-25T09:50:51.276Z,114.81
2023-04-25T09:51:50.810Z,125.89
2023-04-25T09:52:50.345Z,101.97
2023-04-25T09:53:50.653Z,95.95
2023-04-25T09:54:50.499Z,84.37
2023-04-25T09:55:50.573Z,72.89
2023-04-25T09:56:51.282Z,59.46
2023-04-25T09:57:50.630Z,69.49
2023-04-25T09:58:50.545Z,54.25
2023-04-25T09:59:50.634Z,63.70
2023-04-25T10:00:50.587Z,82.43
2023-04-25T10:01:50.830Z,77.68
2023-04-25T10:02:50.765Z,75.15
2023-04-25T10:03:50.806Z,83.12
2023-04-25T10:04:51.784Z,89.66
2023-04-25T10:05:51.015Z,117.69
2023-04-25T10:06:51.722Z,139.69
2023-04-25T10:07:50.931Z,136.33
2023-04-25T10:08:50.921Z,132.55
2023-04-25T10:09:51.737Z,125.85
2023-04-25T10:10:50.988Z,112.67
2023-04-25T10:11:51.059Z,111.41
2023-04-25T10:12:51.103Z,102.35
2023-04-25T10:13:51.335Z,94.52
2023-04-25T10:14:51.149Z,80.17
2023-04-25T10:15:51.882Z,86.22
2023-04-25T10:16:51.184Z,78.15
2023-04-25T10:17:51.262Z,87.12
2023-04-25T10:18:51.740Z,76.58
2023-04-25T10:19:52.298Z,81.62
2023-04-25T10:20:53.286Z,85.24
2023-04-25T10:21:51.735Z,83.39
2023-04-25T10:22:52.277Z,102.13
2023-04-25T10:23:51.530Z,100.23
2023-04-25T10:24:51.261Z,102.05
2023-04-25T10:25:52.444Z,92.66
2023-04-25T10:26:51.778Z,85.99
2023-04-25T10:27:51.243Z,90.33
2023-04-25T10:28:51.908Z,87.73
2023-04-25T10:29:51.204Z,78.09
2023-04-25T10:30:51.288Z,76.60
2023-04-25T10:31:51.800Z,72.76
2023-04-25T10:32:51.191Z,76.34
2023-04-25T10:33:52.129Z,65.71
2023-04-25T10:34:51.175Z,74.78
2023-04-25T10:35:51.164Z,100.19
2023-04-25T10:36:51.224Z,113.64
2023-04-25T10:37:51.173Z,105.33
2023-04-25T10:38:51.734Z,86.82
2023-04-25T10:39:51.348Z,92.66
2023-04-25T10:40:51.153Z,76.87
2023-04-25T10:41:51.227Z,76.08
2023-04-25T10:42:51.141Z,81.45
2023-04-25T10:43:51.356Z,77.34
2023-04-25T10:44:51.191Z,90.72
2023-04-25T10:45:51.163Z,92.47
2023-04-25T10:46:51.217Z,102.43
2023-04-25T10:47:51.125Z,112.01
2023-04-25T10:48:51.134Z,96.20
2023-04-25T10:49:51.236Z,103.78
2023-04-25T10:50:51.164Z,91.02
2023-04-25T10:52:52.071Z,64.59
2023-04-25T10:53:51.304Z,67.65
2023-04-25T10:54:51.126Z,66.83
2023-04-25T10:55:51.067Z,81.12
2023-04-25T10:56:51.065Z,99.24
2023-04-25T10:57:51.050Z,92.30
2023-04-25T10:58:52.187Z,90.83
2023-04-25T10:59:51.256Z,97.30
2023-04-25T11:00:57.592Z,103.26
2023-04-25T11:01:52.172Z,83.24
2023-04-25T11:02:51.299Z,99.14
2023-04-25T11:03:51.203Z,77.20
2023-04-25T11:04:51.104Z,70.16
2023-04-25T11:05:58.323Z,78.47
2023-04-25T11:06:53.819Z,80.30
2023-04-25T11:07:59.977Z,96.60
2023-04-25T11:08:52.081Z,99.96
2023-04-25T11:09:51.812Z,103.87
2023-04-25T11:10:52.216Z,109.32
2023-04-25T11:11:51.252Z,111.95
2023-04-25T11:12:50.958Z,114.30
2023-04-25T11:13:50.925Z,101.69
2023-04-25T11:14:51.257Z,101.71
2023-04-25T11:15:55.156Z,95.09
2023-04-25T11:16:51.945Z,88.85
2023-04-25T11:17:51.042Z,96.09
2023-04-25T11:18:51.044Z,96.46
2023-04-25T11:19:50.902Z,96.58
2023-04-25T11:20:50.871Z,100.93
2023-04-25T11:21:50.866Z,95.10
2023-04-25T11:22:52.710Z,98.69
2023-04-25T11:23:51.009Z,95.92
2023-04-25T11:24:50.881Z,95.09
2023-04-25T11:25:50.845Z,98.91
2023-04-25T11:26:50.877Z,94.25
2023-04-25T11:27:51.271Z,98.67
2023-04-25T11:28:50.830Z,97.39
2023-04-25T11:29:50.877Z,104.35
2023-04-25T11:30:50.938Z,105.45
2023-04-25T11:31:50.863Z,92.61
2023-04-25T11:32:51.362Z,84.49
2023-04-25T11:33:51.124Z,79.79
2023-04-25T11:34:50.809Z,69.70
2023-04-25T11:35:50.798Z,56.65
2023-04-25T11:36:50.838Z,44.76
2023-04-25T11:37:50.858Z,43.42
2023-04-25T11:38:50.924Z,38.12
2023-04-25T11:39:50.874Z,44.98
2023-04-25T11:40:50.921Z,40.70
2023-04-25T11:41:50.975Z,39.27
2023-04-25T11:42:52.474Z,32.98
2023-04-25T11:43:51.018Z,20.03
2023-04-25T11:44:51.092Z,20.69
2023-04-25T11:45:51.150Z,26.89
2023-04-25T11:46:51.144Z,31.08
2023-04-25T11:47:51.137Z,23.33
2023-04-25T11:48:51.315Z,24.48
2023-04-25T11:49:51.261Z,22.89
2023-04-25T11:50:51.211Z,26.81
2023-04-25T11:51:51.295Z,33.12
2023-04-25T11:52:51.488Z,37.26
2023-04-25T11:53:51.300Z,49.11
2023-04-25T11:54:51.340Z,45.96
2023-04-25T11:55:52.068Z,30.94
2023-04-25T11:56:51.371Z,28.99
2023-04-25T11:57:51.399Z,25.00
2023-04-25T11:58:51.441Z,31.00
2023-04-25T11:59:51.550Z,31.42
2023-04-25T12:00:51.499Z,24.66
2023-04-25T12:01:51.659Z,35.94
2023-04-25T12:02:51.679Z,31.16
2023-04-25T12:03:51.756Z,33.39
2023-04-25T12:04:51.721Z,21.58
2023-04-25T12:05:51.919Z,20.43
2023-04-25T12:06:51.854Z,21.59
2023-04-25T12:07:51.779Z,8.85
2023-04-25T12:08:51.969Z,16.94
2023-04-25T12:09:51.768Z,11.97
2023-04-25T12:10:51.883Z,12.97
2023-04-25T12:11:51.972Z,6.16
2023-04-25T12:12:52.437Z,1.59
2023-04-25T12:13:51.997Z,3.49
2023-04-25T12:14:51.858Z,7.08
2023-04-25T12:15:51.942Z,7.72
2023-04-25T12:16:51.894Z,9.55
2023-04-25T12:17:51.993Z,6.95
2023-04-25T12:18:52.284Z,16.09
2023-04-25T12:19:52.031Z,14.88
2023-04-25T12:20:52.026Z,12.81
2023-04-25T12:21:58.032Z,10.36
2023-04-25T12:22:53.277Z,5.40
2023-04-25T12:23:52.078Z,8.56
2023-04-25T12:24:52.052Z,10.36
2023-04-25T12:25:52.078Z,7.09
2023-04-25T12:26:52.082Z,5.10
2023-04-25T12:27:52.042Z,4.54
2023-04-25T12:28:52.235Z,13.15
2023-04-25T12:29:52.017Z,6.60
2023-04-25T12:30:52.008Z,7.71
2023-04-25T12:31:52.924Z,5.27
2023-04-25T12:32:52.022Z,13.17
2023-04-25T12:33:51.989Z,11.42
2023-04-25T12:34:51.995Z,16.46
2023-04-25T12:35:51.994Z,11.96